Time;durP1;ratioP1;P1;durP2;ratioP2;P2;SDS_P1;SDS_P2;PMS_P1;PMS_P2;Temp;Humidity;BMP_temperature;BMP_pressure;BME280_temperature;BME280_humidity;BME280_pressure;Samples;Min_cycle;Max_cycle;Signal;HPM_P1;HPM_P2
2023/12/07 00:01:05;;;;;;;31.83;14.75;;;;;;;;;;5074463;28;20055;-27
2023/12/07 00:03:30;;;;;;;32.13;15.63;;;;;;;;;;5074791;28;20028;-27
2023/12/07 00:05:55;;;;;;;29.13;15.70;;;;;;;;;;5074929;28;20021;-27
2023/12/07 00:08:20;;;;;;;31.85;15.40;;;;;;;;;;5074915;28;20274;-27
2023/12/07 00:10:45;;;;;;;29.50;15.43;;;;;;;;;;5074343;28;20099;-27
2023/12/07 00:13:10;;;;;;;29.27;14.57;;;;;;;;;;5074252;28;20027;-27
2023/12/07 00:15:36;;;;;;;25.67;13.90;;;;;;;;;;5074544;28;20255;-27
2023/12/07 00:18:02;;;;;;;27.77;14.77;;;;;;;;;;5074252;28;20515;-27
2023/12/07 00:20:28;;;;;;;30.45;13.93;;;;;;;;;;5074420;28;20024;-27
2023/12/07 00:22:53;;;;;;;23.87;12.97;;;;;;;;;;5074659;28;20020;-27
2023/12/07 00:25:18;;;;;;;27.00;13.47;;;;;;;;;;5073951;28;20758;-27
2023/12/07 00:27:43;;;;;;;25.27;13.10;;;;;;;;;;5074598;28;20251;-27
2023/12/07 00:30:09;;;;;;;25.02;12.82;;;;;;;;;;5073992;28;20271;-27
2023/12/07 00:32:34;;;;;;;26.48;13.38;;;;;;;;;;5074465;28;20024;-27
2023/12/07 00:34:59;;;;;;;25.77;13.57;;;;;;;;;;5074502;28;20027;-27
2023/12/07 00:37:24;;;;;;;24.90;12.93;;;;;;;;;;5073811;28;20262;-27
2023/12/07 00:39:49;;;;;;;31.85;14.02;;;;;;;;;;5073853;28;20078;-27
2023/12/07 00:42:14;;;;;;;27.07;13.00;;;;;;;;;;5073855;28;20389;-27
2023/12/07 00:44:41;;;;;;;26.00;13.03;;;;;;;;;;5074229;28;20289;-27
2023/12/07 00:47:06;;;;;;;26.73;13.50;;;;;;;;;;5073962;28;20262;-27
2023/12/07 00:49:31;;;;;;;21.98;12.05;;;;;;;;;;5072873;28;20016;-27
2023/12/07 00:51:56;;;;;;;21.55;12.25;;;;;;;;;;5073629;28;20048;-27
2023/12/07 00:54:21;;;;;;;21.17;12.45;;;;;;;;;;5073892;28;20056;-27
2023/12/07 00:56:47;;;;;;;25.52;12.40;;;;;;;;;;5073889;28;20033;-27
2023/12/07 00:59:12;;;;;;;24.63;12.20;;;;;;;;;;5073577;28;20016;-27
2023/12/07 01:01:38;;;;;;;21.93;11.60;;;;;;;;;;5073504;28;20052;-27
2023/12/07 01:04:04;;;;;;;27.30;12.82;;;;;;;;;;5073398;28;20337;-27
2023/12/07 01:06:29;;;;;;;25.27;13.02;;;;;;;;;;5073508;28;20099;-27
2023/12/07 01:08:54;;;;;;;25.83;12.10;;;;;;;;;;5073499;28;20020;-27
2023/12/07 01:11:19;;;;;;;29.52;12.80;;;;;;;;;;5073642;28;20301;-28
2023/12/07 01:13:44;;;;;;;25.33;13.07;;;;;;;;;;5073423;28;20475;-27
2023/12/07 01:16:10;;;;;;;32.93;13.63;;;;;;;;;;5073921;28;20258;-27
2023/12/07 01:18:35;;;;;;;27.00;13.43;;;;;;;;;;5073651;28;20258;-27
2023/12/07 01:21:00;;;;;;;31.80;14.38;;;;;;;;;;5073332;28;20028;-26
2023/12/07 01:23:25;;;;;;;27.93;13.90;;;;;;;;;;5073831;28;20021;-27
2023/12/07 01:25:51;;;;;;;30.17;13.90;;;;;;;;;;5073219;28;20366;-27
2023/12/07 01:28:16;;;;;;;29.67;13.30;;;;;;;;;;5073554;28;20254;-27
2023/12/07 01:30:41;;;;;;;26.60;13.27;;;;;;;;;;5073798;28;20017;-27
2023/12/07 01:33:06;;;;;;;30.83;13.80;;;;;;;;;;5073802;28;20251;-27
2023/12/07 01:35:31;;;;;;;26.88;13.35;;;;;;;;;;5073773;28;20330;-26
2023/12/07 01:37:57;;;;;;;22.27;13.07;;;;;;;;;;5073731;28;20021;-27
2023/12/07 01:40:22;;;;;;;23.17;12.98;;;;;;;;;;5073084;28;20571;-26
2023/12/07 01:42:51;;;;;;;23.42;12.52;;;;;;;;;;5073090;28;20031;-27
2023/12/07 01:45:16;;;;;;;28.30;13.07;;;;;;;;;;5071802;28;20028;-27
2023/12/07 01:47:42;;;;;;;23.60;12.65;;;;;;;;;;5073030;28;20460;-27
2023/12/07 01:50:08;;;;;;;24.67;12.43;;;;;;;;;;5073598;28;20066;-27
2023/12/07 01:52:35;;;;;;;25.13;12.77;;;;;;;;;;5073201;28;20012;-27
2023/12/07 01:55:01;;;;;;;27.40;13.32;;;;;;;;;;5073014;28;20124;-27
2023/12/07 01:57:26;;;;;;;27.40;13.13;;;;;;;;;;5072942;28;20056;-27
2023/12/07 01:59:52;;;;;;;24.45;13.18;;;;;;;;;;5073175;28;20052;-27
2023/12/07 02:02:17;;;;;;;26.65;13.32;;;;;;;;;;5077143;28;20111;-27
2023/12/07 02:04:42;;;;;;;24.05;12.35;;;;;;;;;;5076662;28;20016;-27
2023/12/07 02:07:07;;;;;;;27.65;12.15;;;;;;;;;;5076724;28;20017;-26
2023/12/07 02:09:33;;;;;;;20.25;11.10;;;;;;;;;;5076752;28;20017;-27
2023/12/07 02:11:58;;;;;;;18.60;10.75;;;;;;;;;;5076559;28;20017;-27
2023/12/07 02:14:23;;;;;;;20.17;11.33;;;;;;;;;;5077120;28;20021;-27
2023/12/07 02:16:50;;;;;;;19.90;10.93;;;;;;;;;;5076518;28;20254;-27
2023/12/07 02:19:21;;;;;;;20.50;11.13;;;;;;;;;;5076499;28;20025;-26
2023/12/07 02:22:06;;;;;;;20.60;10.95;;;;;;;;;;5076756;28;20108;-26
2023/12/07 02:24:33;;;;;;;21.98;10.75;;;;;;;;;;5076347;28;20025;-27
2023/12/07 02:26:58;;;;;;;20.55;11.25;;;;;;;;;;5076904;28;20051;-31
2023/12/07 02:29:23;;;;;;;20.30;11.00;;;;;;;;;;5076369;28;20536;-27
2023/12/07 02:31:49;;;;;;;19.13;10.18;;;;;;;;;;5076545;28;20263;-27
2023/12/07 02:34:14;;;;;;;23.30;9.80;;;;;;;;;;5076207;28;20375;-27
2023/12/07 02:36:40;;;;;;;22.05;10.10;;;;;;;;;;5076147;28;20020;-27
2023/12/07 02:39:06;;;;;;;18.85;9.90;;;;;;;;;;5076452;28;20075;-27
2023/12/07 02:41:32;;;;;;;16.50;9.27;;;;;;;;;;5076368;28;20016;-27
2023/12/07 02:43:58;;;;;;;18.23;9.40;;;;;;;;;;5076617;28;20051;-26
2023/12/07 02:46:24;;;;;;;17.45;8.77;;;;;;;;;;5074608;28;20383;-27
2023/12/07 02:48:49;;;;;;;19.95;9.48;;;;;;;;;;5076085;28;20454;-27
2023/12/07 02:51:14;;;;;;;18.23;9.32;;;;;;;;;;5075968;28;20025;-27
2023/12/07 02:53:39;;;;;;;17.80;9.67;;;;;;;;;;5076200;28;20027;-27
2023/12/07 02:56:05;;;;;;;18.93;8.90;;;;;;;;;;5075845;28;20789;-27
2023/12/07 02:58:30;;;;;;;16.45;8.77;;;;;;;;;;5076124;28;20270;-27
2023/12/07 03:00:55;;;;;;;18.05;9.07;;;;;;;;;;5074426;28;20183;-27
2023/12/07 03:03:20;;;;;;;18.40;9.07;;;;;;;;;;5075821;28;20025;-27
2023/12/07 03:05:45;;;;;;;18.13;8.93;;;;;;;;;;5075674;28;20354;-27
2023/12/07 03:08:11;;;;;;;18.38;9.15;;;;;;;;;;5075858;28;20259;-27
2023/12/07 03:10:36;;;;;;;17.05;9.10;;;;;;;;;;5075622;28;20017;-26
2023/12/07 03:13:01;;;;;;;17.02;9.30;;;;;;;;;;5074666;28;20020;-27
2023/12/07 03:15:26;;;;;;;19.13;9.00;;;;;;;;;;5076045;28;20021;-28
2023/12/07 03:17:52;;;;;;;18.20;9.63;;;;;;;;;;5076008;28;20251;-27
2023/12/07 03:20:17;;;;;;;13.67;8.23;;;;;;;;;;5075920;28;20315;-27
2023/12/07 03:22:42;;;;;;;16.07;8.63;;;;;;;;;;5076480;28;20259;-27
2023/12/07 03:25:07;;;;;;;19.13;9.15;;;;;;;;;;5075254;28;20628;-27
2023/12/07 03:27:32;;;;;;;14.57;8.45;;;;;;;;;;5075558;28;20021;-27
2023/12/07 03:29:58;;;;;;;17.98;8.85;;;;;;;;;;5075408;28;20447;-27
2023/12/07 03:32:23;;;;;;;16.97;8.83;;;;;;;;;;5075142;28;20019;-27
2023/12/07 03:34:48;;;;;;;16.27;8.57;;;;;;;;;;5075096;28;20251;-27
2023/12/07 03:37:13;;;;;;;15.55;8.43;;;;;;;;;;5073672;28;20365;-27
2023/12/07 03:39:38;;;;;;;16.23;8.80;;;;;;;;;;5074944;28;20027;-27
2023/12/07 03:42:04;;;;;;;16.90;8.37;;;;;;;;;;5076013;28;20052;-27
2023/12/07 03:44:29;;;;;;;18.48;9.02;;;;;;;;;;5074760;28;20792;-27
2023/12/07 03:46:54;;;;;;;14.50;8.40;;;;;;;;;;5074855;28;20016;-27
2023/12/07 03:49:20;;;;;;;14.15;8.10;;;;;;;;;;5074954;28;20320;-27
2023/12/07 03:51:45;;;;;;;15.77;7.88;;;;;;;;;;5075112;28;20027;-27
2023/12/07 03:54:11;;;;;;;16.33;8.45;;;;;;;;;;5074737;28;20526;-27
2023/12/07 03:56:36;;;;;;;15.98;8.18;;;;;;;;;;5074749;28;20028;-27
2023/12/07 03:59:01;;;;;;;15.18;8.18;;;;;;;;;;5075181;28;20028;-27
2023/12/07 04:01:27;;;;;;;16.52;8.00;;;;;;;;;;5074499;28;20522;-29
2023/12/07 04:03:53;;;;;;;13.93;7.95;;;;;;;;;;5074823;28;20101;-27
2023/12/07 04:06:18;;;;;;;13.77;8.25;;;;;;;;;;5074675;28;20485;-27
2023/12/07 04:08:44;;;;;;;15.38;8.25;;;;;;;;;;5074692;28;20020;-27
2023/12/07 04:11:09;;;;;;;14.63;7.93;;;;;;;;;;5074648;28;20099;-27
2023/12/07 04:13:34;;;;;;;14.85;8.93;;;;;;;;;;5074391;28;20012;-27
2023/12/07 04:15:59;;;;;;;15.93;8.33;;;;;;;;;;5074915;28;20024;-27
2023/12/07 04:18:25;;;;;;;19.85;8.55;;;;;;;;;;5074799;28;20740;-27
2023/12/07 04:20:50;;;;;;;12.32;7.57;;;;;;;;;;5074254;28;20510;-27
2023/12/07 04:23:15;;;;;;;17.90;9.07;;;;;;;;;;5074077;28;20100;-27
2023/12/07 04:25:40;;;;;;;15.32;9.02;;;;;;;;;;5074032;28;20032;-27
2023/12/07 04:28:05;;;;;;;15.23;8.88;;;;;;;;;;5074091;28;20048;-27
2023/12/07 04:30:30;;;;;;;16.73;9.07;;;;;;;;;;5074365;28;20052;-27
2023/12/07 04:32:56;;;;;;;16.83;9.02;;;;;;;;;;5074056;28;20486;-27
2023/12/07 04:35:21;;;;;;;18.40;9.40;;;;;;;;;;5074509;28;20028;-27
2023/12/07 04:37:46;;;;;;;16.42;9.07;;;;;;;;;;5073853;28;20746;-27
2023/12/07 04:40:12;;;;;;;15.65;8.70;;;;;;;;;;5073863;28;20025;-27
2023/12/07 04:42:37;;;;;;;16.23;9.02;;;;;;;;;;5073891;28;20021;-28
2023/12/07 04:45:02;;;;;;;17.27;9.40;;;;;;;;;;5073759;28;20021;-27
2023/12/07 04:47:27;;;;;;;14.73;7.95;;;;;;;;;;5074016;28;20266;-27
2023/12/07 04:49:53;;;;;;;16.10;9.07;;;;;;;;;;5072126;28;20459;-27
2023/12/07 04:52:19;;;;;;;16.20;9.32;;;;;;;;;;5073999;28;20298;-27
2023/12/07 04:54:44;;;;;;;18.10;9.10;;;;;;;;;;5073890;28;20352;-27
2023/12/07 04:57:09;;;;;;;16.05;9.05;;;;;;;;;;5073681;28;20103;-29
2023/12/07 04:59:34;;;;;;;17.43;9.43;;;;;;;;;;5074055;28;20020;-26
2023/12/07 05:02:00;;;;;;;17.20;9.55;;;;;;;;;;5073622;28;20257;-27
2023/12/07 05:04:25;;;;;;;17.52;9.35;;;;;;;;;;5073399;28;20035;-27
2023/12/07 05:06:50;;;;;;;19.87;9.17;;;;;;;;;;5073849;28;20040;-27
2023/12/07 05:09:15;;;;;;;15.50;9.20;;;;;;;;;;5073808;28;20753;-27
2023/12/07 05:11:41;;;;;;;18.00;9.37;;;;;;;;;;5073401;28;20492;-27
2023/12/07 05:14:07;;;;;;;15.60;9.02;;;;;;;;;;5073513;28;20296;-27
2023/12/07 05:16:32;;;;;;;20.15;9.70;;;;;;;;;;5073714;28;20375;-27
2023/12/07 05:18:57;;;;;;;19.70;9.53;;;;;;;;;;5073385;28;20099;-27
2023/12/07 05:21:22;;;;;;;18.80;10.07;;;;;;;;;;5073934;28;20264;-27
2023/12/07 05:23:48;;;;;;;20.02;9.85;;;;;;;;;;5073687;28;20467;-27
2023/12/07 05:26:13;;;;;;;18.17;9.98;;;;;;;;;;5073535;28;20020;-27
2023/12/07 05:28:38;;;;;;;18.95;9.85;;;;;;;;;;5073287;28;20016;-27
2023/12/07 05:31:03;;;;;;;20.73;9.85;;;;;;;;;;5073818;28;20020;-27
2023/12/07 05:33:29;;;;;;;17.15;9.05;;;;;;;;;;5073543;28;20348;-27
2023/12/07 05:35:54;;;;;;;17.13;9.70;;;;;;;;;;5076006;28;20028;-27
2023/12/07 05:38:19;;;;;;;20.02;10.15;;;;;;;;;;5076989;28;20361;-27
2023/12/07 05:40:44;;;;;;;18.13;9.43;;;;;;;;;;5075413;28;20024;-27
2023/12/07 05:43:09;;;;;;;17.73;10.15;;;;;;;;;;5074986;28;20259;-27
2023/12/07 05:45:34;;;;;;;16.20;9.53;;;;;;;;;;5075027;28;20020;-27
2023/12/07 05:48:00;;;;;;;17.20;9.93;;;;;;;;;;5075284;28;20556;-27
2023/12/07 05:50:25;;;;;;;18.77;10.13;;;;;;;;;;5075150;28;20039;-27
2023/12/07 05:52:50;;;;;;;19.92;10.25;;;;;;;;;;5075198;28;20270;-27
2023/12/07 05:55:15;;;;;;;19.83;10.30;;;;;;;;;;5076678;28;20066;-27
2023/12/07 05:57:40;;;;;;;23.60;10.70;;;;;;;;;;5077495;28;20270;-27
2023/12/07 06:00:09;;;;;;;25.75;10.77;;;;;;;;;;5076956;28;20056;-27
2023/12/07 06:02:34;;;;;;;21.88;10.70;;;;;;;;;;5077262;28;20142;-27
2023/12/07 06:04:59;;;;;;;28.67;11.55;;;;;;;;;;5076717;28;20487;-27
2023/12/07 06:07:24;;;;;;;51.58;12.38;;;;;;;;;;5076780;28;20096;-27
2023/12/07 06:09:50;;;;;;;48.67;10.90;;;;;;;;;;5076646;28;20062;-27
2023/12/07 06:12:15;;;;;;;41.63;12.27;;;;;;;;;;5076630;28;20032;-27
2023/12/07 06:14:40;;;;;;;78.38;11.60;;;;;;;;;;5076703;28;20326;-27
2023/12/07 06:17:05;;;;;;;39.38;12.15;;;;;;;;;;5076570;28;20104;-27
2023/12/07 06:19:30;;;;;;;38.47;12.00;;;;;;;;;;5077091;28;20037;-27
2023/12/07 06:21:55;;;;;;;45.73;11.73;;;;;;;;;;5076612;28;20456;-27
2023/12/07 06:24:24;;;;;;;30.35;11.63;;;;;;;;;;5076939;28;20291;-27
2023/12/07 06:26:49;;;;;;;55.83;11.02;;;;;;;;;;5076330;28;20017;-27
2023/12/07 06:29:14;;;;;;;42.07;11.57;;;;;;;;;;5076646;28;20020;-27
2023/12/07 06:31:42;;;;;;;40.67;11.40;;;;;;;;;;5076415;28;20330;-27
2023/12/07 06:34:08;;;;;;;53.53;12.07;;;;;;;;;;5076563;28;20269;-27
2023/12/07 06:36:33;;;;;;;30.05;11.10;;;;;;;;;;5076500;28;20117;-26
2023/12/07 06:38:58;;;;;;;38.55;11.45;;;;;;;;;;5076456;28;20024;-27
2023/12/07 06:41:23;;;;;;;46.33;13.73;;;;;;;;;;5076719;28;20056;-27
2023/12/07 06:43:48;;;;;;;36.70;11.50;;;;;;;;;;5076416;28;20578;-27
2023/12/07 06:46:14;;;;;;;48.90;12.40;;;;;;;;;;5075358;28;20021;-26
2023/12/07 06:48:39;;;;;;;58.53;13.80;;;;;;;;;;5076191;28;20751;-27
2023/12/07 06:51:04;;;;;;;50.45;12.05;;;;;;;;;;5075964;28;20012;-27
2023/12/07 06:53:31;;;;;;;26.70;11.52;;;;;;;;;;5076536;28;20024;-27
2023/12/07 06:55:56;;;;;;;39.65;12.75;;;;;;;;;;5076039;28;20028;-27
2023/12/07 06:58:21;;;;;;;43.33;11.45;;;;;;;;;;5075096;28;20017;-27
2023/12/07 07:00:47;;;;;;;42.97;12.90;;;;;;;;;;5075551;28;20049;-27
2023/12/07 07:03:12;;;;;;;109.65;13.98;;;;;;;;;;5074796;28;20108;-27
2023/12/07 07:05:37;;;;;;;61.70;13.18;;;;;;;;;;5075702;28;20024;-27
2023/12/07 07:08:03;;;;;;;55.80;12.80;;;;;;;;;;5076224;28;20020;-27
2023/12/07 07:10:28;;;;;;;54.80;14.15;;;;;;;;;;5075942;28;20320;-26
2023/12/07 07:12:54;;;;;;;81.22;13.50;;;;;;;;;;5075510;28;20017;-27
2023/12/07 07:15:19;;;;;;;53.70;14.15;;;;;;;;;;5075513;28;20375;-27
2023/12/07 07:17:45;;;;;;;67.55;14.02;;;;;;;;;;5075388;28;20021;-27
2023/12/07 07:20:10;;;;;;;93.95;13.13;;;;;;;;;;5075671;28;20025;-27
2023/12/07 07:22:35;;;;;;;51.13;12.50;;;;;;;;;;5075313;28;20017;-27
2023/12/07 07:25:00;;;;;;;40.55;13.98;;;;;;;;;;5071858;28;20061;-27
2023/12/07 07:27:25;;;;;;;84.65;14.95;;;;;;;;;;5075136;28;20016;-27
2023/12/07 07:29:51;;;;;;;63.33;13.73;;;;;;;;;;5074887;28;20166;-27
2023/12/07 07:32:16;;;;;;;90.85;13.52;;;;;;;;;;5071770;28;20017;-27
2023/12/07 07:34:41;;;;;;;80.07;13.53;;;;;;;;;;5073269;28;20032;-27
2023/12/07 07:37:09;;;;;;;48.33;13.15;;;;;;;;;;5073355;28;20262;-26
2023/12/07 07:39:34;;;;;;;49.05;12.63;;;;;;;;;;5073321;28;20034;-27
2023/12/07 07:42:00;;;;;;;71.22;12.88;;;;;;;;;;5073518;28;20017;-27
2023/12/07 07:44:25;;;;;;;67.68;13.52;;;;;;;;;;5073107;28;20017;-27
2023/12/07 07:46:50;;;;;;;83.80;13.97;;;;;;;;;;5074822;28;20016;-27
2023/12/07 07:49:15;;;;;;;88.68;14.48;;;;;;;;;;5075091;28;20325;-26
2023/12/07 07:51:40;;;;;;;115.90;14.20;;;;;;;;;;5075254;28;20019;-27
2023/12/07 07:54:05;;;;;;;54.83;14.80;;;;;;;;;;5074716;28;20655;-27
2023/12/07 07:56:31;;;;;;;66.88;12.38;;;;;;;;;;5074625;28;20266;-27
2023/12/07 07:58:58;;;;;;;93.87;12.93;;;;;;;;;;5074731;28;20024;-27
2023/12/07 08:01:23;;;;;;;103.45;14.48;;;;;;;;;;5074381;28;20328;-27
2023/12/07 08:03:48;;;;;;;88.03;13.93;;;;;;;;;;5075145;28;20021;-27
2023/12/07 08:06:13;;;;;;;75.90;12.70;;;;;;;;;;5075042;28;20027;-27
2023/12/07 08:08:38;;;;;;;106.70;15.73;;;;;;;;;;5074490;28;20063;-27
2023/12/07 08:11:05;;;;;;;163.13;14.80;;;;;;;;;;5074444;28;20599;-27
2023/12/07 08:13:30;;;;;;;165.88;16.63;;;;;;;;;;5074687;28;20305;-27
2023/12/07 08:15:55;;;;;;;47.00;13.10;;;;;;;;;;5074916;28;20052;-27
2023/12/07 08:18:22;;;;;;;123.43;15.00;;;;;;;;;;5074310;28;20498;-27
2023/12/07 08:20:47;;;;;;;79.78;13.32;;;;;;;;;;5074395;28;20254;-27
2023/12/07 08:23:12;;;;;;;128.27;15.87;;;;;;;;;;5074402;28;20031;-27
2023/12/07 08:25:40;;;;;;;95.05;13.65;;;;;;;;;;5074376;28;20362;-27
2023/12/07 08:28:06;;;;;;;40.35;14.38;;;;;;;;;;5074402;28;20019;-26
2023/12/07 08:30:31;;;;;;;52.20;14.60;;;;;;;;;;5074321;28;20012;-26
2023/12/07 08:32:56;;;;;;;67.13;14.27;;;;;;;;;;5074370;28;20016;-27
2023/12/07 08:35:21;;;;;;;78.13;13.88;;;;;;;;;;5073970;28;20285;-27
2023/12/07 08:37:46;;;;;;;120.18;13.57;;;;;;;;;;5074162;28;20032;-27
2023/12/07 08:40:15;;;;;;;47.95;12.60;;;;;;;;;;5074173;28;20026;-27
2023/12/07 08:42:40;;;;;;;62.83;13.43;;;;;;;;;;5073928;28;20540;-27
2023/12/07 08:45:05;;;;;;;57.75;13.30;;;;;;;;;;5074066;28;20024;-27
2023/12/07 08:47:31;;;;;;;64.30;12.35;;;;;;;;;;5073773;28;20024;-27
2023/12/07 08:49:56;;;;;;;61.25;12.32;;;;;;;;;;5073997;28;20375;-27
2023/12/07 08:52:22;;;;;;;48.10;14.35;;;;;;;;;;5073905;28;20023;-27
2023/12/07 08:54:47;;;;;;;114.90;17.58;;;;;;;;;;5074208;28;20017;-27
2023/12/07 08:57:12;;;;;;;69.30;14.67;;;;;;;;;;5073886;28;20020;-27
2023/12/07 08:59:37;;;;;;;43.22;11.88;;;;;;;;;;5073606;28;20352;-27
2023/12/07 09:02:02;;;;;;;44.73;13.00;;;;;;;;;;5073534;28;20090;-27
2023/12/07 09:04:28;;;;;;;30.25;11.68;;;;;;;;;;5073424;28;20259;-29
2023/12/07 09:06:53;;;;;;;44.92;13.32;;;;;;;;;;5073333;28;20425;-27
2023/12/07 09:09:19;;;;;;;46.78;12.88;;;;;;;;;;5072755;28;20021;-27
2023/12/07 09:11:44;;;;;;;40.20;13.50;;;;;;;;;;5073291;28;20021;-27
2023/12/07 09:14:09;;;;;;;66.77;11.97;;;;;;;;;;5074034;28;20039;-27
2023/12/07 09:16:34;;;;;;;95.73;13.27;;;;;;;;;;5073449;28;20629;-27
2023/12/07 09:19:00;;;;;;;31.30;11.23;;;;;;;;;;5073778;28;20255;-27
2023/12/07 09:21:25;;;;;;;44.28;13.63;;;;;;;;;;5073397;28;20099;-27
2023/12/07 09:23:50;;;;;;;41.47;11.88;;;;;;;;;;5073714;28;20025;-27
2023/12/07 09:26:16;;;;;;;47.13;12.48;;;;;;;;;;5073309;28;20394;-28
2023/12/07 09:28:41;;;;;;;43.72;12.63;;;;;;;;;;5073295;28;20028;-27
2023/12/07 09:31:07;;;;;;;24.17;11.17;;;;;;;;;;5073854;28;20017;-27
2023/12/07 09:33:32;;;;;;;35.25;11.55;;;;;;;;;;5073302;28;20254;-27
2023/12/07 09:35:57;;;;;;;36.05;11.77;;;;;;;;;;5073870;28;20025;-27
2023/12/07 09:38:22;;;;;;;32.08;11.60;;;;;;;;;;5073483;28;20547;-27
2023/12/07 09:40:52;;;;;;;27.98;11.73;;;;;;;;;;5073501;28;20099;-27
2023/12/07 09:43:17;;;;;;;57.72;10.85;;;;;;;;;;5073234;28;20028;-26
2023/12/07 09:45:43;;;;;;;34.42;10.75;;;;;;;;;;5073427;28;20089;-26
2023/12/07 09:48:09;;;;;;;37.83;11.07;;;;;;;;;;5073682;28;20023;-26
2023/12/07 09:50:34;;;;;;;43.42;11.10;;;;;;;;;;5073006;28;20017;-26
2023/12/07 09:52:59;;;;;;;25.75;9.88;;;;;;;;;;5073347;28;20016;-26
2023/12/07 09:55:27;;;;;;;22.10;9.88;;;;;;;;;;5073112;28;20031;-26
2023/12/07 09:57:56;;;;;;;27.17;10.45;;;;;;;;;;5073320;28;20020;-26
2023/12/07 10:00:21;;;;;;;29.13;10.20;;;;;;;;;;5073132;28;20063;-26
2023/12/07 10:02:47;;;;;;;17.30;9.20;;;;;;;;;;5073018;28;20016;-26
2023/12/07 10:05:13;;;;;;;36.47;9.15;;;;;;;;;;5073436;28;20069;-27
2023/12/07 10:07:42;;;;;;;25.55;9.32;;;;;;;;;;5073057;28;20013;-26
2023/12/07 10:10:07;;;;;;;27.73;8.88;;;;;;;;;;5073013;28;20021;-26
2023/12/07 10:12:36;;;;;;;33.00;8.45;;;;;;;;;;5073032;28;20090;-26
2023/12/07 10:15:14;;;;;;;39.25;8.65;;;;;;;;;;5073186;28;20479;-27
2023/12/07 10:17:47;;;;;;;27.10;8.75;;;;;;;;;;5073509;28;20039;-26
2023/12/07 10:20:13;;;;;;;33.42;8.57;;;;;;;;;;5073200;28;20027;-26
2023/12/07 10:22:39;;;;;;;37.50;8.57;;;;;;;;;;5076578;28;20024;-26
2023/12/07 10:25:04;;;;;;;16.48;7.00;;;;;;;;;;5076494;28;20371;-26
2023/12/07 10:27:29;;;;;;;33.05;7.70;;;;;;;;;;5077006;28;20024;-26
2023/12/07 10:29:55;;;;;;;37.35;8.35;;;;;;;;;;5076887;28;20008;-27
2023/12/07 10:32:21;;;;;;;32.30;7.15;;;;;;;;;;5076394;28;20044;-26
2023/12/07 10:34:46;;;;;;;30.27;7.45;;;;;;;;;;5076593;28;20398;-30
2023/12/07 10:37:12;;;;;;;40.33;8.63;;;;;;;;;;5076594;28;20019;-26
2023/12/07 10:39:37;;;;;;;32.65;8.23;;;;;;;;;;5076345;28;20267;-26
2023/12/07 10:42:05;;;;;;;18.83;7.70;;;;;;;;;;5076505;28;20028;-26
2023/12/07 10:44:32;;;;;;;18.75;8.00;;;;;;;;;;5076256;28;20035;-26
2023/12/07 10:46:58;;;;;;;18.77;7.78;;;;;;;;;;5076392;28;20474;-26
2023/12/07 10:49:26;;;;;;;19.77;7.15;;;;;;;;;;5076557;28;20099;-26
2023/12/07 10:51:54;;;;;;;20.63;7.65;;;;;;;;;;5076291;28;20024;-28
2023/12/07 10:54:22;;;;;;;16.30;7.07;;;;;;;;;;5076213;28;20455;-26
2023/12/07 10:56:48;;;;;;;26.85;7.90;;;;;;;;;;5076176;28;20368;-26
2023/12/07 10:59:15;;;;;;;20.80;6.70;;;;;;;;;;5075823;28;20028;-26
2023/12/07 11:01:40;;;;;;;18.10;6.93;;;;;;;;;;5075621;28;20067;-26
2023/12/07 11:04:06;;;;;;;25.48;7.07;;;;;;;;;;5076114;28;20020;-26
2023/12/07 11:06:31;;;;;;;18.70;5.97;;;;;;;;;;5075649;28;20103;-26
2023/12/07 11:08:59;;;;;;;24.20;7.03;;;;;;;;;;5075773;28;20048;-26
2023/12/07 11:11:40;;;;;;;17.75;6.88;;;;;;;;;;5075624;28;20016;-26
2023/12/07 11:14:07;;;;;;;17.00;6.72;;;;;;;;;;5075508;28;20463;-26
2023/12/07 11:16:36;;;;;;;21.92;6.97;;;;;;;;;;5076026;28;20023;-26
2023/12/07 11:19:01;;;;;;;23.15;7.97;;;;;;;;;;5075801;28;20024;-26
2023/12/07 11:21:27;;;;;;;25.30;6.97;;;;;;;;;;5075778;28;20472;-27
2023/12/07 11:23:55;;;;;;;22.42;6.30;;;;;;;;;;5075459;28;20020;-26
2023/12/07 11:26:24;;;;;;;29.55;6.60;;;;;;;;;;5075913;28;20357;-26
2023/12/07 11:28:49;;;;;;;30.05;6.65;;;;;;;;;;5075581;28;20073;-26
2023/12/07 11:31:15;;;;;;;17.23;5.95;;;;;;;;;;5075261;28;20420;-26
2023/12/07 11:33:41;;;;;;;13.45;6.22;;;;;;;;;;5074677;28;20031;-26
2023/12/07 11:36:07;;;;;;;17.35;7.07;;;;;;;;;;5075395;28;20025;-26
2023/12/07 11:38:32;;;;;;;20.30;7.00;;;;;;;;;;5075277;28;20016;-27
2023/12/07 11:40:57;;;;;;;18.73;6.82;;;;;;;;;;5075245;28;20031;-27
2023/12/07 11:43:31;;;;;;;20.02;6.88;;;;;;;;;;5075228;28;20025;-26
2023/12/07 11:45:57;;;;;;;16.08;6.28;;;;;;;;;;5074976;28;20028;-26
2023/12/07 11:48:22;;;;;;;20.50;7.43;;;;;;;;;;5074869;28;20347;-26
2023/12/07 11:50:56;;;;;;;14.80;6.70;;;;;;;;;;5074891;28;20270;-27
2023/12/07 11:53:25;;;;;;;16.73;7.82;;;;;;;;;;5074976;28;20096;-26
2023/12/07 11:55:51;;;;;;;18.30;7.50;;;;;;;;;;5075028;28;20016;-26
2023/12/07 11:58:16;;;;;;;21.27;8.27;;;;;;;;;;5075025;28;20012;-26
2023/12/07 12:00:41;;;;;;;19.42;7.72;;;;;;;;;;5074546;28;20071;-27
2023/12/07 12:03:06;;;;;;;19.55;8.07;;;;;;;;;;5074609;28;20099;-26
2023/12/07 12:05:32;;;;;;;19.17;7.82;;;;;;;;;;5074415;28;20016;-26
2023/12/07 12:07:57;;;;;;;22.30;7.95;;;;;;;;;;5074543;28;20020;-26
2023/12/07 12:10:25;;;;;;;20.27;7.63;;;;;;;;;;5074518;28;20408;-26
2023/12/07 12:12:50;;;;;;;20.08;8.43;;;;;;;;;;5074415;28;20603;-26
2023/12/07 12:15:15;;;;;;;22.33;8.75;;;;;;;;;;5074438;28;20017;-26
2023/12/07 12:17:41;;;;;;;21.38;8.23;;;;;;;;;;5074332;28;20028;-26
2023/12/07 12:20:06;;;;;;;18.48;7.90;;;;;;;;;;5074613;28;20025;-27
2023/12/07 12:22:32;;;;;;;19.35;8.15;;;;;;;;;;5074462;28;20155;-27
2023/12/07 12:24:57;;;;;;;17.33;7.80;;;;;;;;;;5074486;28;20515;-32
2023/12/07 12:27:23;;;;;;;22.48;8.68;;;;;;;;;;5074461;28;20033;-26
2023/12/07 12:29:48;;;;;;;20.58;8.35;;;;;;;;;;5074394;28;20096;-26
2023/12/07 12:32:13;;;;;;;18.92;8.00;;;;;;;;;;5074632;28;20031;-26
2023/12/07 12:34:39;;;;;;;23.63;8.93;;;;;;;;;;5074345;28;20020;-26
2023/12/07 12:37:05;;;;;;;32.93;8.17;;;;;;;;;;5074009;28;20428;-26
2023/12/07 12:39:31;;;;;;;33.55;8.75;;;;;;;;;;5073947;28;20740;-26
2023/12/07 12:41:57;;;;;;;34.90;8.82;;;;;;;;;;5074644;28;20012;-26
2023/12/07 12:44:23;;;;;;;17.20;8.00;;;;;;;;;;5074054;28;20024;-26
2023/12/07 12:46:48;;;;;;;24.13;9.10;;;;;;;;;;5073774;28;20099;-26
2023/12/07 12:49:13;;;;;;;28.65;8.77;;;;;;;;;;5073842;28;20016;-27
2023/12/07 12:51:38;;;;;;;20.87;8.67;;;;;;;;;;5074104;28;20052;-27
2023/12/07 12:54:04;;;;;;;30.63;8.80;;;;;;;;;;5073690;28;20277;-26
2023/12/07 12:56:29;;;;;;;30.27;8.93;;;;;;;;;;5074055;28;20021;-26
2023/12/07 12:58:57;;;;;;;22.85;9.18;;;;;;;;;;5074269;28;20150;-26
2023/12/07 13:01:23;;;;;;;26.35;10.13;;;;;;;;;;5073480;28;20052;-26
2023/12/07 13:03:48;;;;;;;25.63;9.88;;;;;;;;;;5073635;28;20020;-27
2023/12/07 13:06:14;;;;;;;23.02;8.77;;;;;;;;;;5074086;28;20066;-26
2023/12/07 13:08:40;;;;;;;26.08;9.93;;;;;;;;;;5073538;28;20482;-26
2023/12/07 13:11:05;;;;;;;23.42;8.73;;;;;;;;;;5073723;28;20418;-26
2023/12/07 13:13:31;;;;;;;55.33;8.98;;;;;;;;;;5073542;28;20012;-27
2023/12/07 13:15:56;;;;;;;46.03;10.03;;;;;;;;;;5073422;28;20452;-26
2023/12/07 13:18:21;;;;;;;23.85;9.90;;;;;;;;;;5073565;28;20263;-26
2023/12/07 13:20:46;;;;;;;27.77;9.43;;;;;;;;;;5073642;28;20020;-26
2023/12/07 13:23:11;;;;;;;26.85;9.88;;;;;;;;;;5073438;28;20052;-26
2023/12/07 13:25:37;;;;;;;31.10;10.00;;;;;;;;;;5073320;28;20028;-26
2023/12/07 13:28:02;;;;;;;27.88;10.38;;;;;;;;;;5073888;28;20332;-26
2023/12/07 13:30:33;;;;;;;36.47;10.13;;;;;;;;;;5073543;28;20013;-26
2023/12/07 13:32:59;;;;;;;33.00;11.35;;;;;;;;;;5073546;28;20016;-26
2023/12/07 13:35:24;;;;;;;27.73;10.85;;;;;;;;;;5073501;28;20024;-27
2023/12/07 13:37:49;;;;;;;30.67;11.30;;;;;;;;;;5073387;28;20095;-27
2023/12/07 13:40:15;;;;;;;24.00;10.87;;;;;;;;;;5073288;28;20426;-26
2023/12/07 13:42:40;;;;;;;27.38;11.45;;;;;;;;;;5073533;28;20342;-27
2023/12/07 13:45:08;;;;;;;21.60;8.88;;;;;;;;;;5073039;28;20012;-26
2023/12/07 13:47:36;;;;;;;26.35;11.15;;;;;;;;;;5073136;28;20020;-26
2023/12/07 13:50:03;;;;;;;27.10;11.20;;;;;;;;;;5073463;28;20043;-26
2023/12/07 13:52:28;;;;;;;28.98;12.73;;;;;;;;;;5073113;28;20032;-26
2023/12/07 13:54:54;;;;;;;29.98;12.15;;;;;;;;;;5071734;28;20067;-26
2023/12/07 13:57:20;;;;;;;28.85;11.57;;;;;;;;;;5076316;28;20074;-26
2023/12/07 13:59:45;;;;;;;28.80;12.02;;;;;;;;;;5077306;28;20090;-26
2023/12/07 14:02:10;;;;;;;29.63;11.80;;;;;;;;;;5076874;28;20053;-26
2023/12/07 14:04:35;;;;;;;30.80;12.73;;;;;;;;;;5076806;28;20270;-26
2023/12/07 14:07:14;;;;;;;25.25;11.43;;;;;;;;;;5077120;28;20044;-26
2023/12/07 14:09:46;;;;;;;29.02;12.20;;;;;;;;;;5077133;28;20025;-27
2023/12/07 14:12:13;;;;;;;27.70;12.07;;;;;;;;;;5077011;28;20021;-26
2023/12/07 14:14:45;;;;;;;28.08;12.52;;;;;;;;;;5076635;28;20016;-26